createdAt,value
2022-12-31T00:02:34.144Z,60.74
2022-12-31T00:12:42.378Z,59.88
2022-12-31T00:17:47.230Z,57.59
2022-12-31T00:22:50.606Z,55.84
2022-12-31T00:27:56.431Z,55.09
2022-12-31T00:33:01.219Z,55.13
2022-12-31T00:38:04.710Z,52.65
2022-12-31T00:43:10.193Z,52.24
2022-12-31T00:48:14.976Z,54.37
2022-12-31T00:53:18.505Z,53.96
2022-12-31T00:58:22.119Z,53.11
2022-12-31T01:03:27.203Z,53.26
2022-12-31T01:08:30.826Z,52.14
2022-12-31T01:13:34.423Z,51.75
2022-12-31T01:19:07.111Z,50.62
2022-12-31T01:24:08.580Z,49.33
2022-12-31T01:29:13.511Z,49.88
2022-12-31T01:34:18.225Z,49.30
2022-12-31T01:39:21.579Z,48.83
2022-12-31T01:44:50.724Z,48.35
2022-12-31T01:50:01.729Z,47.64
2022-12-31T01:55:13.817Z,47.79
2022-12-31T02:00:18.274Z,47.25
2022-12-31T02:05:28.363Z,45.87
2022-12-31T02:10:31.807Z,48.15
2022-12-31T02:15:42.908Z,57.89
2022-12-31T02:21:03.883Z,46.51
2022-12-31T02:26:28.314Z,49.10
2022-12-31T02:31:36.712Z,49.68
2022-12-31T02:36:46.278Z,45.41
2022-12-31T02:41:53.799Z,53.39
2022-12-31T02:47:08.682Z,54.26
2022-12-31T02:52:20.093Z,44.49
2022-12-31T02:57:30.766Z,52.58
2022-12-31T03:02:38.266Z,44.35
2022-12-31T03:07:42.875Z,42.72
2022-12-31T03:12:49.570Z,41.89
2022-12-31T03:17:56.943Z,41.01
2022-12-31T03:23:00.426Z,37.91
2022-12-31T03:28:07.662Z,36.50
2022-12-31T03:33:14.844Z,33.59
2022-12-31T03:38:19.250Z,42.76
2022-12-31T03:43:22.740Z,33.30
2022-12-31T03:48:29.939Z,37.40
2022-12-31T03:53:35.989Z,29.13
2022-12-31T03:58:39.361Z,25.43
2022-12-31T04:03:44.270Z,24.99
2022-12-31T04:08:47.663Z,23.95
2022-12-31T04:13:53.793Z,23.57
2022-12-31T04:18:58.668Z,23.73
2022-12-31T04:24:02.730Z,23.76
2022-12-31T04:29:06.103Z,23.24
2022-12-31T04:34:10.858Z,23.54
2022-12-31T04:39:14.269Z,25.78
2022-12-31T04:44:17.670Z,23.24
2022-12-31T04:49:24.706Z,23.77
2022-12-31T04:54:30.624Z,23.97
2022-12-31T04:59:36.380Z,24.34
2022-12-31T05:04:43.947Z,23.33
2022-12-31T05:09:47.399Z,26.87
2022-12-31T05:14:50.864Z,28.05
2022-12-31T05:19:55.787Z,32.81
2022-12-31T05:25:00.164Z,30.70
2022-12-31T05:30:03.528Z,34.59
2022-12-31T05:35:09.112Z,32.96
2022-12-31T05:40:13.501Z,30.94
2022-12-31T05:45:21.058Z,30.83
2022-12-31T05:50:28.724Z,29.62
2022-12-31T05:55:34.979Z,29.87
2022-12-31T06:00:43.778Z,30.00
2022-12-31T06:05:52.044Z,29.56
2022-12-31T06:10:57.991Z,29.02
2022-12-31T06:16:05.894Z,31.27
2022-12-31T06:21:12.844Z,29.12
2022-12-31T06:26:18.544Z,28.90
2022-12-31T06:31:22.122Z,28.54
2022-12-31T06:36:27.189Z,29.23
2022-12-31T06:41:30.651Z,28.66
2022-12-31T06:46:34.179Z,28.28
2022-12-31T06:51:39.138Z,27.48
2022-12-31T06:56:42.911Z,27.65
2022-12-31T07:01:52.684Z,28.69
2022-12-31T07:07:04.580Z,28.50
2022-12-31T07:12:14.967Z,31.47
2022-12-31T07:17:28.409Z,29.52
2022-12-31T07:22:33.683Z,28.04
2022-12-31T07:27:49.986Z,27.42
2022-12-31T07:33:12.673Z,26.44
2022-12-31T07:38:23.496Z,25.75
2022-12-31T07:43:34.585Z,25.97
2022-12-31T07:48:38.199Z,24.53
2022-12-31T07:53:45.241Z,24.59
2022-12-31T07:59:01.165Z,23.65
2022-12-31T08:04:10.861Z,26.33
2022-12-31T08:09:26.885Z,27.54
2022-12-31T08:14:32.026Z,28.91
2022-12-31T08:19:35.696Z,22.85
2022-12-31T08:24:53.568Z,21.88
2022-12-31T08:30:03.999Z,23.54
2022-12-31T08:35:19.276Z,21.82
2022-12-31T08:40:29.478Z,21.65
2022-12-31T08:45:37.853Z,21.24
2022-12-31T08:50:42.758Z,21.17
2022-12-31T08:55:53.875Z,20.68
2022-12-31T09:00:59.570Z,20.73
2022-12-31T09:06:12.425Z,20.41
2022-12-31T09:11:24.854Z,18.71
2022-12-31T09:16:37.903Z,16.82
2022-12-31T09:21:45.262Z,14.67
2022-12-31T09:26:57.544Z,16.92
2022-12-31T09:32:09.954Z,14.32
2022-12-31T09:37:17.284Z,14.06
2022-12-31T09:42:41.988Z,13.33
2022-12-31T09:48:13.731Z,12.80
2022-12-31T09:53:28.775Z,13.43
2022-12-31T09:58:42.247Z,14.18
2022-12-31T10:04:03.907Z,16.72
2022-12-31T10:09:19.387Z,17.06
2022-12-31T10:14:34.344Z,19.20
2022-12-31T10:19:58.711Z,17.68
2022-12-31T10:25:38.463Z,17.62
2022-12-31T10:30:49.796Z,17.10
2022-12-31T10:36:02.347Z,16.59
2022-12-31T10:41:33.561Z,16.73
2022-12-31T10:46:58.758Z,15.72
2022-12-31T10:52:20.617Z,18.71
2022-12-31T10:57:50.247Z,16.55
2022-12-31T11:03:10.597Z,16.43
2022-12-31T11:08:29.619Z,16.86
2022-12-31T11:13:56.432Z,21.75
2022-12-31T11:19:15.104Z,16.27
2022-12-31T11:24:29.628Z,15.69
2022-12-31T11:29:44.411Z,15.61
2022-12-31T11:35:08.314Z,14.79
2022-12-31T11:40:22.487Z,14.34
2022-12-31T11:45:36.629Z,16.55
2022-12-31T11:50:46.411Z,16.38
2022-12-31T11:56:01.437Z,19.31
2022-12-31T12:01:13.252Z,17.01
2022-12-31T12:06:28.961Z,24.80
2022-12-31T12:11:36.538Z,17.39
2022-12-31T12:16:42.649Z,15.98
2022-12-31T12:21:50.324Z,17.59
2022-12-31T12:26:55.377Z,15.85
2022-12-31T12:32:02.727Z,31.79
2022-12-31T12:37:23.158Z,13.10
2022-12-31T12:42:30.088Z,15.24
2022-12-31T12:47:37.840Z,13.09
2022-12-31T12:53:03.910Z,13.93
2022-12-31T12:58:19.348Z,14.73
2022-12-31T13:04:14.695Z,14.53
2022-12-31T13:09:37.147Z,30.89
2022-12-31T13:14:48.731Z,15.03
2022-12-31T13:20:00.772Z,14.73
2022-12-31T13:25:12.837Z,22.73
2022-12-31T13:30:20.127Z,13.03
2022-12-31T13:35:29.706Z,14.53
2022-12-31T13:40:47.367Z,15.61
2022-12-31T13:46:02.100Z,14.02
2022-12-31T13:51:14.937Z,13.49
2022-12-31T13:56:24.111Z,13.78
2022-12-31T14:01:34.986Z,13.86
2022-12-31T14:06:43.927Z,13.64
2022-12-31T14:11:57.303Z,20.83
2022-12-31T14:17:07.197Z,16.19
2022-12-31T14:22:20.917Z,14.75
2022-12-31T14:27:29.054Z,15.17
2022-12-31T14:32:47.976Z,16.76
2022-12-31T14:37:59.783Z,14.25
2022-12-31T14:43:13.458Z,12.84
2022-12-31T14:48:31.161Z,13.18
2022-12-31T14:53:34.579Z,16.62
2022-12-31T14:58:39.986Z,16.36
2022-12-31T15:03:46.336Z,25.71
2022-12-31T15:09:01.113Z,19.25
2022-12-31T15:14:36.868Z,18.42
2022-12-31T15:20:16.968Z,17.06
2022-12-31T15:25:27.626Z,17.93
2022-12-31T15:30:34.344Z,12.19
2022-12-31T15:35:48.707Z,11.21
2022-12-31T15:40:53.257Z,12.70
2022-12-31T15:45:59.068Z,13.11
2022-12-31T15:51:07.721Z,15.06
2022-12-31T15:56:19.829Z,13.09
2022-12-31T16:01:27.441Z,12.64
2022-12-31T16:06:35.327Z,13.40
2022-12-31T16:11:41.839Z,11.84
2022-12-31T16:16:52.604Z,12.67
2022-12-31T16:22:02.569Z,16.14
2022-12-31T16:27:12.899Z,21.08
2022-12-31T16:32:17.919Z,13.61
2022-12-31T16:37:23.907Z,12.57
2022-12-31T16:42:30.765Z,13.51
2022-12-31T16:47:36.601Z,14.55
2022-12-31T16:52:50.402Z,14.37
2022-12-31T16:57:57.990Z,22.82
2022-12-31T17:03:17.926Z,12.86
2022-12-31T17:08:29.600Z,14.78
2022-12-31T17:13:48.512Z,14.41
2022-12-31T17:18:54.751Z,13.47
2022-12-31T17:24:03.035Z,12.57
2022-12-31T17:29:08.047Z,11.59
2022-12-31T17:34:23.838Z,11.51
2022-12-31T17:39:42.699Z,11.44
2022-12-31T17:44:46.278Z,13.68
2022-12-31T17:49:49.866Z,29.85
2022-12-31T17:54:54.810Z,13.20
2022-12-31T17:59:58.481Z,12.94
2022-12-31T18:05:02.207Z,16.80
2022-12-31T18:10:07.593Z,12.99
2022-12-31T18:15:15.950Z,13.19
2022-12-31T18:20:21.994Z,17.53
2022-12-31T18:25:26.896Z,17.12
2022-12-31T18:30:30.321Z,21.62
2022-12-31T18:36:06.975Z,19.06
2022-12-31T18:41:00.820Z,14.70
2022-12-31T18:46:10.947Z,16.32
2022-12-31T18:51:15.138Z,13.69
2022-12-31T18:56:20.935Z,13.41
2022-12-31T19:01:29.572Z,13.29
2022-12-31T19:06:33.125Z,16.10
2022-12-31T19:11:43.596Z,14.03
2022-12-31T19:16:57.453Z,14.23
2022-12-31T19:22:00.940Z,14.57
2022-12-31T19:27:05.845Z,21.59
2022-12-31T19:32:15.996Z,22.54
2022-12-31T19:37:21.041Z,18.40
2022-12-31T19:42:32.163Z,16.22
2022-12-31T19:47:40.938Z,15.50
2022-12-31T19:52:45.650Z,17.87
2022-12-31T19:57:50.529Z,22.17
2022-12-31T20:02:54.180Z,16.46
2022-12-31T20:08:00.367Z,18.15
2022-12-31T20:13:10.574Z,14.36
2022-12-31T20:18:21.019Z,13.99
2022-12-31T20:23:26.819Z,13.11
2022-12-31T20:28:31.633Z,14.36
2022-12-31T20:33:35.290Z,12.20
2022-12-31T20:38:39.234Z,11.17
2022-12-31T20:43:44.249Z,12.83
2022-12-31T20:48:48.544Z,13.87
2022-12-31T20:53:57.383Z,20.52
2022-12-31T20:59:05.527Z,14.07
2022-12-31T21:04:09.218Z,14.26
2022-12-31T21:09:15.222Z,14.15
2022-12-31T21:14:20.183Z,13.55
2022-12-31T21:19:23.616Z,13.73
2022-12-31T21:24:27.060Z,13.49
2022-12-31T21:29:34.914Z,13.87
2022-12-31T21:34:40.448Z,14.55
2022-12-31T21:39:43.867Z,18.03
2022-12-31T21:44:48.736Z,18.07
2022-12-31T21:49:52.357Z,22.41
2022-12-31T21:55:14.297Z,13.30
2022-12-31T22:00:42.971Z,12.53
2022-12-31T22:05:48.204Z,12.30
2022-12-31T22:10:55.137Z,10.92
2022-12-31T22:16:05.563Z,12.33
2022-12-31T22:21:17.856Z,12.38
2022-12-31T22:26:27.571Z,12.96
2022-12-31T22:31:32.373Z,13.58
2022-12-31T22:36:36.121Z,12.42
2022-12-31T22:41:41.602Z,14.86
2022-12-31T22:46:49.303Z,12.60
2022-12-31T22:51:59.915Z,12.30
2022-12-31T22:57:06.412Z,12.27
2022-12-31T23:02:12.312Z,13.82
2022-12-31T23:07:19.153Z,29.06
2022-12-31T23:12:30.860Z,28.91
2022-12-31T23:18:26.204Z,287.58
2022-12-31T23:24:15.790Z,382.94
2022-12-31T23:29:47.428Z,115.40
2022-12-31T23:35:07.769Z,36.07
2022-12-31T23:40:21.837Z,31.61
2022-12-31T23:45:31.138Z,26.58
2022-12-31T23:50:38.149Z,23.05
2022-12-31T23:55:41.633Z,21.71
